Time;durP1;ratioP1;P1;durP2;ratioP2;P2;SDS_P1;SDS_P2;PMS_P1;PMS_P2;Temp;Humidity;BMP_temperature;BMP_pressure;BME280_temperature;BME280_humidity;BME280_pressure;Samples;Min_cycle;Max_cycle;Signal;HPM_P1;HPM_P2
2023/08/05 00:01:19;;;;;;;8.00;3.92;;;;;;;15.29;100.00;101620.25;5032032;28;20358;-72
2023/08/05 00:03:44;;;;;;;9.45;4.07;;;;;;;15.30;100.00;101615.69;5031520;28;20496;-72
2023/08/05 00:06:10;;;;;;;12.90;4.20;;;;;;;15.28;100.00;101617.78;5031656;28;20040;-72
2023/08/05 00:08:35;;;;;;;5.88;3.90;;;;;;;15.27;100.00;101611.59;5031558;28;20034;-72
2023/08/05 00:11:01;;;;;;;9.77;4.72;;;;;;;15.25;100.00;101616.34;5031181;28;20035;-72
2023/08/05 00:13:26;;;;;;;8.60;4.93;;;;;;;15.26;100.00;101614.47;5031343;28;20109;-72
2023/08/05 00:15:53;;;;;;;7.50;4.13;;;;;;;15.25;100.00;101612.81;5031208;28;20114;-72
2023/08/05 00:18:18;;;;;;;7.45;4.47;;;;;;;15.25;100.00;101607.44;5031061;28;20123;-72
2023/08/05 00:20:44;;;;;;;8.98;4.50;;;;;;;15.25;100.00;101600.22;5030966;28;20041;-72
2023/08/05 00:23:09;;;;;;;9.98;4.82;;;;;;;15.26;100.00;101598.34;5031083;28;20029;-72
2023/08/05 00:25:35;;;;;;;8.02;4.90;;;;;;;15.25;100.00;101604.75;5031163;28;20109;-72
2023/08/05 00:28:00;;;;;;;10.95;4.20;;;;;;;15.24;100.00;101603.91;5031171;28;20025;-72
2023/08/05 00:30:25;;;;;;;12.02;5.40;;;;;;;15.22;100.00;101597.94;5029703;28;20030;-72
2023/08/05 00:32:51;;;;;;;8.60;4.82;;;;;;;15.22;100.00;101603.31;5030866;28;20284;-72
2023/08/05 00:35:16;;;;;;;7.25;4.07;;;;;;;15.20;100.00;101602.69;5030945;28;20035;-74
2023/08/05 00:37:42;;;;;;;9.98;4.40;;;;;;;15.16;100.00;101593.38;5029236;28;20029;-73
2023/08/05 00:40:08;;;;;;;11.95;4.80;;;;;;;15.15;100.00;101590.94;5030806;28;20116;-72
2023/08/05 00:42:33;;;;;;;10.38;4.43;;;;;;;15.18;100.00;101598.56;5029311;28;20037;-72
2023/08/05 00:44:58;;;;;;;10.70;4.40;;;;;;;15.19;100.00;101597.50;5030627;28;20040;-72
2023/08/05 00:47:24;;;;;;;9.13;4.70;;;;;;;15.19;100.00;101590.28;5030790;28;20115;-72
2023/08/05 00:49:51;;;;;;;9.48;4.75;;;;;;;15.18;100.00;101591.31;5030756;28;20496;-72
2023/08/05 00:52:18;;;;;;;8.73;4.32;;;;;;;15.17;100.00;101578.94;5030593;28;20116;-73
2023/08/05 00:54:44;;;;;;;11.35;4.93;;;;;;;15.18;100.00;101582.44;5030343;28;20038;-72
2023/08/05 00:57:11;;;;;;;7.72;4.10;;;;;;;15.13;100.00;101573.13;5030527;28;20465;-72
2023/08/05 00:59:36;;;;;;;6.43;4.25;;;;;;;15.15;100.00;101575.63;5028987;28;20511;-72
2023/08/05 01:02:02;;;;;;;7.95;4.38;;;;;;;15.11;100.00;101577.06;5029949;28;20037;-72
2023/08/05 01:04:27;;;;;;;10.73;4.50;;;;;;;15.09;100.00;101571.91;5030351;28;20061;-72
2023/08/05 01:06:53;;;;;;;11.43;4.53;;;;;;;15.02;100.00;101563.03;5030244;28;20507;-72
2023/08/05 01:09:19;;;;;;;7.80;4.38;;;;;;;14.98;100.00;101561.78;5030074;28;20060;-72
2023/08/05 01:11:45;;;;;;;7.75;3.90;;;;;;;14.88;100.00;101556.00;5030033;28;20143;-72
2023/08/05 01:14:10;;;;;;;9.65;4.85;;;;;;;14.83;100.00;101553.97;5030497;28;20487;-72
2023/08/05 01:16:36;;;;;;;7.90;4.07;;;;;;;14.83;100.00;101542.41;5045301;28;20503;-72
2023/08/05 01:19:04;;;;;;;8.45;4.07;;;;;;;14.80;100.00;101540.94;5028376;28;20060;-72
2023/08/05 01:21:41;;;;;;;8.32;4.88;;;;;;;14.78;100.00;101551.06;5029944;28;20507;-72
2023/08/05 01:24:26;;;;;;;7.15;4.07;;;;;;;14.76;100.00;101541.56;5029778;28;20100;-72
2023/08/05 01:26:54;;;;;;;5.93;3.63;;;;;;;14.68;100.00;101543.41;5030080;28;20040;-72
2023/08/05 01:29:20;;;;;;;10.45;4.53;;;;;;;14.71;100.00;101539.50;5030092;28;20020;-72
2023/08/05 01:31:47;;;;;;;13.05;5.25;;;;;;;14.71;100.00;101541.38;5029906;28;20042;-73
2023/08/05 01:34:13;;;;;;;7.38;3.78;;;;;;;14.59;100.00;101550.03;5029711;28;20098;-72
2023/08/05 01:36:39;;;;;;;10.77;4.55;;;;;;;14.59;100.00;101550.03;5029674;28;20587;-72
2023/08/05 01:39:04;;;;;;;9.48;4.47;;;;;;;14.58;100.00;101547.56;5029215;28;20037;-72
2023/08/05 01:41:29;;;;;;;8.88;4.18;;;;;;;14.56;100.00;101546.94;5030007;28;20124;-72
2023/08/05 01:43:55;;;;;;;8.50;4.20;;;;;;;14.53;100.00;101545.47;5028130;28;20481;-72
2023/08/05 01:46:20;;;;;;;9.90;4.53;;;;;;;14.55;100.00;101547.97;5029625;28;20080;-72
2023/08/05 01:48:45;;;;;;;9.65;5.00;;;;;;;14.54;100.00;101546.31;5029481;28;20021;-72
2023/08/05 01:51:11;;;;;;;7.25;4.20;;;;;;;14.58;100.00;101555.59;5029388;28;20037;-72
2023/08/05 01:53:36;;;;;;;7.97;4.65;;;;;;;14.59;100.00;101557.25;5029774;28;20057;-72
2023/08/05 01:56:01;;;;;;;8.18;4.28;;;;;;;14.55;100.00;101556.84;5029269;28;20071;-73
2023/08/05 01:58:27;;;;;;;9.80;4.95;;;;;;;14.52;100.00;101549.19;5029415;28;20026;-72
2023/08/05 02:00:53;;;;;;;9.95;5.32;;;;;;;14.51;100.00;101541.31;5029242;28;20381;-72
2023/08/05 02:03:19;;;;;;;10.10;4.72;;;;;;;14.47;100.00;101539.03;5029535;28;20036;-72
2023/08/05 02:05:45;;;;;;;13.15;6.05;;;;;;;14.52;100.00;101540.31;5029210;28;20037;-72
2023/08/05 02:08:10;;;;;;;9.55;4.55;;;;;;;14.44;100.00;101535.97;5029358;28;20029;-72
2023/08/05 02:10:37;;;;;;;12.73;5.45;;;;;;;14.47;100.00;101541.72;5029063;28;20373;-72
2023/08/05 02:13:03;;;;;;;7.63;4.32;;;;;;;14.44;100.00;101542.16;5028356;28;20033;-72
2023/08/05 02:15:28;;;;;;;9.60;5.20;;;;;;;14.40;100.00;101540.91;5029114;28;20037;-74
2023/08/05 02:17:54;;;;;;;10.88;4.65;;;;;;;14.40;100.00;101554.31;5028793;28;20148;-73
2023/08/05 02:20:19;;;;;;;12.38;4.60;;;;;;;14.37;100.00;101554.72;5029167;28;20064;-72
2023/08/05 02:22:45;;;;;;;8.40;4.60;;;;;;;14.30;100.00;101551.19;5028875;28;20075;-72
2023/08/05 02:25:10;;;;;;;10.93;4.75;;;;;;;14.31;100.00;101544.81;5029349;28;20469;-72
2023/08/05 02:27:35;;;;;;;10.05;5.88;;;;;;;14.27;100.00;101551.59;5028956;28;20061;-72
2023/08/05 02:30:01;;;;;;;9.45;4.53;;;;;;;14.28;100.00;101549.75;5028962;28;20033;-72
2023/08/05 02:32:26;;;;;;;10.27;5.00;;;;;;;14.27;100.00;101548.09;5029010;28;20035;-72
2023/08/05 02:34:51;;;;;;;10.38;4.57;;;;;;;14.25;100.00;101537.56;5028970;28;20444;-72
2023/08/05 02:37:17;;;;;;;12.50;6.10;;;;;;;14.24;100.00;101541.28;5044069;28;20037;-73
2023/08/05 02:39:42;;;;;;;7.35;4.53;;;;;;;14.24;100.00;101533.25;5044131;28;20037;-72
2023/08/05 02:42:08;;;;;;;11.73;4.55;;;;;;;14.20;100.00;101522.09;5028972;28;20036;-72
2023/08/05 02:44:33;;;;;;;11.13;5.68;;;;;;;14.18;100.00;101520.66;5028701;28;20492;-72
2023/08/05 02:46:58;;;;;;;9.00;4.60;;;;;;;14.15;100.00;101521.88;5044165;28;20116;-72
2023/08/05 02:49:24;;;;;;;10.18;5.00;;;;;;;14.14;100.00;101525.56;5028687;28;20420;-72
2023/08/05 02:51:49;;;;;;;9.30;4.60;;;;;;;14.15;100.00;101523.75;5027455;28;20553;-72
2023/08/05 02:54:16;;;;;;;10.05;4.75;;;;;;;14.09;100.00;101521.84;5028808;28;20093;-72
2023/08/05 02:56:41;;;;;;;12.25;5.10;;;;;;;14.10;100.00;101524.34;5028509;28;20029;-72
2023/08/05 02:59:07;;;;;;;11.45;4.85;;;;;;;14.10;100.00;101524.34;5028698;28;20025;-72
2023/08/05 03:01:32;;;;;;;10.15;5.00;;;;;;;14.04;100.00;101525.16;5028691;28;20022;-72
2023/08/05 03:03:57;;;;;;;16.25;5.85;;;;;;;14.05;100.00;101520.63;5028656;28;20396;-72
2023/08/05 03:06:23;;;;;;;8.82;4.80;;;;;;;14.03;100.00;101529.69;5028480;28;20436;-73
2023/08/05 03:08:48;;;;;;;9.45;5.15;;;;;;;13.96;100.00;101506.56;5027221;28;20561;-72
2023/08/05 03:11:13;;;;;;;10.23;5.20;;;;;;;14.00;100.00;101505.97;5028527;28;20488;-72
2023/08/05 03:13:39;;;;;;;10.07;5.25;;;;;;;13.99;100.00;101511.50;5028692;28;20040;-72
2023/08/05 03:16:13;;;;;;;9.95;4.60;;;;;;;14.01;100.00;101498.72;5028592;28;20120;-72
2023/08/05 03:18:38;;;;;;;10.40;4.90;;;;;;;14.01;100.00;101504.09;5028472;28;20635;-73
2023/08/05 03:21:04;;;;;;;8.85;4.75;;;;;;;14.04;100.00;101501.00;5028569;28;20117;-72
2023/08/05 03:23:29;;;;;;;12.05;6.28;;;;;;;14.06;100.00;101496.28;5028440;28;20045;-72
2023/08/05 03:25:54;;;;;;;11.52;5.60;;;;;;;14.08;100.00;101498.75;5031335;28;20033;-72
2023/08/05 03:28:20;;;;;;;9.00;4.70;;;;;;;14.08;100.00;101504.94;5032002;28;20420;-72
2023/08/05 03:30:45;;;;;;;9.05;5.57;;;;;;;14.09;100.00;101497.72;5032112;28;20120;-72
2023/08/05 03:33:11;;;;;;;12.90;6.10;;;;;;;14.12;100.00;101492.78;5030725;28;20037;-72
2023/08/05 03:35:42;;;;;;;11.68;4.93;;;;;;;14.14;100.00;101492.56;5032012;28;20029;-72
2023/08/05 03:38:08;;;;;;;14.80;5.10;;;;;;;14.15;100.00;101492.38;5031637;28;20112;-73
2023/08/05 03:40:33;;;;;;;13.57;5.20;;;;;;;14.13;100.00;101488.25;5032053;28;20600;-72
2023/08/05 03:42:58;;;;;;;13.27;5.38;;;;;;;14.13;100.00;101483.69;5031938;28;20044;-72
2023/08/05 03:45:24;;;;;;;10.63;4.93;;;;;;;14.10;100.00;101473.38;5031945;28;20401;-72
2023/08/05 03:47:51;;;;;;;10.98;5.50;;;;;;;14.10;100.00;101473.38;5031866;28;20032;-73
2023/08/05 03:50:17;;;;;;;14.00;7.25;;;;;;;14.13;100.00;101464.09;5031781;28;20040;-72
2023/08/05 03:52:42;;;;;;;10.35;5.28;;;;;;;14.05;100.00;101459.75;5031608;28;20493;-73
2023/08/05 03:55:08;;;;;;;13.50;6.03;;;;;;;14.10;100.00;101456.47;5031639;28;20136;-73
2023/08/05 03:57:34;;;;;;;11.85;5.80;;;;;;;14.09;100.00;101452.94;5031683;28;20091;-72
2023/08/05 03:59:59;;;;;;;11.57;6.47;;;;;;;14.06;100.00;101447.16;5031468;28;20152;-73
2023/08/05 04:02:25;;;;;;;12.30;5.40;;;;;;;14.01;100.00;101445.09;5031529;28;20040;-73
2023/08/05 04:04:50;;;;;;;15.70;6.43;;;;;;;14.03;100.00;101448.41;5030171;28;20380;-72
2023/08/05 04:07:19;;;;;;;13.30;5.78;;;;;;;14.00;100.00;101438.09;5031119;28;20120;-72
2023/08/05 04:09:44;;;;;;;12.30;5.10;;;;;;;13.99;100.00;101431.91;5030119;28;20057;-73
2023/08/05 04:12:10;;;;;;;13.45;6.22;;;;;;;13.98;100.00;101440.97;5030365;28;20066;-72
2023/08/05 04:14:37;;;;;;;16.13;5.90;;;;;;;14.00;100.00;101441.59;5030378;28;20539;-73
2023/08/05 04:17:03;;;;;;;16.45;6.90;;;;;;;13.99;100.00;101439.09;5030588;28;20037;-73
2023/08/05 04:19:28;;;;;;;12.27;5.38;;;;;;;14.01;100.00;101440.56;5030802;28;20046;-72
2023/08/05 04:21:54;;;;;;;10.93;5.38;;;;;;;13.98;100.00;101443.66;5031037;28;20385;-72
2023/08/05 04:24:22;;;;;;;13.20;6.30;;;;;;;13.99;100.00;101444.47;5031183;28;20041;-72
2023/08/05 04:26:50;;;;;;;15.68;6.18;;;;;;;13.96;100.00;101448.41;5030829;28;20029;-72
2023/08/05 04:29:18;;;;;;;13.82;6.72;;;;;;;13.97;100.00;101438.50;5046297;28;20044;-72
2023/08/05 04:31:45;;;;;;;11.45;4.80;;;;;;;14.03;100.00;101432.31;5030435;28;20033;-72
2023/08/05 04:34:10;;;;;;;11.23;5.95;;;;;;;14.01;100.00;101419.09;5029616;28;20040;-72
2023/08/05 04:36:36;;;;;;;14.30;6.32;;;;;;;14.01;100.00;101418.28;5028413;28;20389;-72
2023/08/05 04:39:03;;;;;;;14.98;6.18;;;;;;;14.01;100.00;101412.91;5030337;28;20393;-73
2023/08/05 04:41:28;;;;;;;13.88;6.72;;;;;;;14.03;100.00;101410.84;5030943;28;20657;-72
2023/08/05 04:43:54;;;;;;;12.30;6.15;;;;;;;13.99;100.00;101391.69;5030760;28;20037;-72
2023/08/05 04:46:19;;;;;;;11.15;6.03;;;;;;;14.06;100.00;101398.88;5030804;28;20044;-73
2023/08/05 04:48:44;;;;;;;14.13;5.97;;;;;;;14.05;100.00;101402.63;5030549;28;20033;-72
2023/08/05 04:51:10;;;;;;;13.95;6.22;;;;;;;14.03;100.00;101394.75;5030571;28;20082;-72
2023/08/05 04:53:36;;;;;;;11.27;5.72;;;;;;;14.07;100.00;101387.13;5030814;28;20067;-72
2023/08/05 04:56:02;;;;;;;13.85;6.88;;;;;;;14.09;100.00;101395.78;5045555;28;20473;-72
2023/08/05 04:58:27;;;;;;;12.55;6.32;;;;;;;14.09;100.00;101399.28;5030389;28;20056;-72
2023/08/05 05:00:56;;;;;;;18.08;7.53;;;;;;;14.09;100.00;101401.16;5028999;28;20364;-73
2023/08/05 05:03:22;;;;;;;11.93;6.13;;;;;;;14.13;100.00;101402.41;5030827;28;20033;-73
2023/08/05 05:05:47;;;;;;;13.48;6.90;;;;;;;14.15;100.00;101403.03;5030671;28;20071;-73
2023/08/05 05:08:13;;;;;;;13.75;6.03;;;;;;;14.15;100.00;101409.22;5030398;28;20036;-73
2023/08/05 05:10:38;;;;;;;13.93;7.07;;;;;;;14.19;100.00;101399.69;5030276;28;20487;-73
2023/08/05 05:13:03;;;;;;;13.43;6.40;;;;;;;14.21;100.00;101404.88;5030541;28;20037;-73
2023/08/05 05:15:29;;;;;;;14.02;6.85;;;;;;;14.22;100.00;101393.91;5030404;28;20030;-73
2023/08/05 05:17:54;;;;;;;15.27;7.65;;;;;;;14.29;100.00;101403.84;5030138;28;20459;-73
2023/08/05 05:20:19;;;;;;;14.75;6.60;;;;;;;14.28;100.00;101399.50;5030281;28;20025;-73
2023/08/05 05:22:45;;;;;;;14.48;7.85;;;;;;;14.24;100.00;101399.09;5030424;28;20546;-73
2023/08/05 05:25:10;;;;;;;15.88;7.75;;;;;;;14.23;100.00;101395.59;5030137;28;20562;-73
2023/08/05 05:27:35;;;;;;;13.75;7.15;;;;;;;14.26;100.00;101391.66;5030301;28;20040;-73
2023/08/05 05:30:01;;;;;;;12.93;7.32;;;;;;;14.27;100.00;101389.81;5029979;28;20502;-73
2023/08/05 05:32:27;;;;;;;14.35;7.40;;;;;;;14.25;100.00;101388.16;5045092;28;20044;-73
2023/08/05 05:34:52;;;;;;;16.58;7.95;;;;;;;14.29;100.00;101382.38;5029762;28;20052;-73
2023/08/05 05:37:18;;;;;;;16.48;8.38;;;;;;;14.31;100.00;101386.50;5030036;28;20112;-73
2023/08/05 05:39:44;;;;;;;17.95;8.70;;;;;;;14.34;100.00;101387.94;5030028;28;20025;-72
2023/08/05 05:42:10;;;;;;;16.17;7.07;;;;;;;14.34;100.00;101380.72;5029880;28;20472;-73
2023/08/05 05:44:35;;;;;;;16.65;7.57;;;;;;;14.39;100.00;101385.47;5029928;28;20107;-73
2023/08/05 05:47:01;;;;;;;16.42;8.10;;;;;;;14.42;100.00;101375.13;5029573;28;20037;-73
2023/08/05 05:49:27;;;;;;;16.42;8.13;;;;;;;14.47;100.00;101383.38;5029835;28;20029;-73
2023/08/05 05:51:52;;;;;;;17.38;7.60;;;;;;;14.50;100.00;101386.69;5029633;28;20392;-73
2023/08/05 05:54:18;;;;;;;16.10;7.13;;;;;;;14.51;100.00;101386.44;5029752;28;20029;-73
2023/08/05 05:56:43;;;;;;;14.65;7.20;;;;;;;14.54;100.00;101382.56;5029407;28;20036;-73
2023/08/05 05:59:09;;;;;;;16.52;7.65;;;;;;;14.57;100.00;101388.34;5029406;28;20480;-73
2023/08/05 06:01:34;;;;;;;18.90;7.65;;;;;;;14.60;100.00;101377.19;5029473;28;20087;-73
2023/08/05 06:04:02;;;;;;;15.02;7.55;;;;;;;14.69;100.00;101373.22;5027913;28;20037;-73
2023/08/05 06:06:27;;;;;;;16.30;7.47;;;;;;;14.77;100.00;101380.22;5011901;28;20469;-73
2023/08/05 06:08:53;;;;;;;16.65;7.88;;;;;;;14.81;100.00;101373.41;5045054;28;20064;-73
2023/08/05 06:11:18;;;;;;;16.75;7.57;;;;;;;14.87;100.00;101383.28;5029422;28;20472;-73
2023/08/05 06:13:43;;;;;;;13.52;7.35;;;;;;;14.98;100.00;101375.63;5045152;28;20568;-72
2023/08/05 06:16:09;;;;;;;15.57;8.18;;;;;;;15.09;100.00;101374.94;5029137;28;20396;-73
2023/08/05 06:18:34;;;;;;;16.10;8.23;;;;;;;15.15;100.00;101363.34;5028711;28;20057;-72
2023/08/05 06:21:00;;;;;;;18.17;8.32;;;;;;;15.21;100.00;101365.16;5029177;28;20053;-72
2023/08/05 06:23:25;;;;;;;16.48;7.75;;;;;;;15.23;100.00;101364.97;5029338;28;20128;-73
2023/08/05 06:25:50;;;;;;;14.80;8.05;;;;;;;15.23;100.00;101368.47;5027867;28;20386;-73
2023/08/05 06:28:16;;;;;;;14.50;6.93;;;;;;;15.29;100.00;101362.22;5029366;28;20053;-73
2023/08/05 06:30:47;;;;;;;14.90;7.30;;;;;;;15.35;100.00;101357.84;5029130;28;20040;-72
2023/08/05 06:33:13;;;;;;;15.05;7.07;;;;;;;15.43;100.00;101363.00;5027853;28;20405;-73
2023/08/05 06:35:40;;;;;;;14.98;7.68;;;;;;;15.47;100.00;101360.69;5029392;28;20025;-73
2023/08/05 06:38:05;;;;;;;19.08;8.73;;;;;;;15.54;100.00;101358.78;5044777;28;20033;-72
2023/08/05 06:40:31;;;;;;;20.27;8.52;;;;;;;15.61;100.00;101361.41;5029156;28;20056;-72
2023/08/05 06:42:56;;;;;;;15.63;7.68;;;;;;;15.73;100.00;101357.84;5044465;28;20037;-72
2023/08/05 06:45:25;;;;;;;16.85;8.45;;;;;;;15.85;100.00;101351.75;5028893;28;20040;-71
2023/08/05 06:47:50;;;;;;;18.75;8.45;;;;;;;15.90;100.00;101346.53;5028997;28;20401;-74
2023/08/05 06:50:15;;;;;;;15.35;8.90;;;;;;;15.97;100.00;101350.00;5044209;28;20075;-72
2023/08/05 06:52:41;;;;;;;17.77;8.80;;;;;;;16.00;100.00;101341.50;5028806;28;20037;-72
2023/08/05 06:55:08;;;;;;;19.08;8.75;;;;;;;16.08;100.00;101356.53;5028726;28;20091;-72
2023/08/05 06:57:34;;;;;;;17.73;9.57;;;;;;;16.14;100.00;101361.88;5027365;28;20064;-71
2023/08/05 06:59:59;;;;;;;16.70;8.45;;;;;;;16.18;100.00;101360.38;5030158;28;20447;-71
2023/08/05 07:02:25;;;;;;;15.40;7.35;;;;;;;16.18;100.00;101354.97;5032742;28;20041;-71
2023/08/05 07:04:53;;;;;;;13.57;7.63;;;;;;;16.16;100.00;101362.44;5032907;28;20021;-72
2023/08/05 07:07:19;;;;;;;14.95;8.82;;;;;;;16.21;100.00;101353.72;5032824;28;20440;-71
2023/08/05 07:09:45;;;;;;;11.48;6.63;;;;;;;16.27;100.00;101347.47;5032937;28;20065;-71
2023/08/05 07:12:10;;;;;;;12.50;6.63;;;;;;;16.36;100.00;101339.91;5032273;28;20026;-71
2023/08/05 07:14:36;;;;;;;13.60;7.13;;;;;;;16.44;100.00;101343.13;5032394;28;20547;-71
2023/08/05 07:17:01;;;;;;;11.98;6.93;;;;;;;16.62;100.00;101334.22;5032032;28;20052;-71
2023/08/05 07:19:27;;;;;;;14.23;6.57;;;;;;;16.76;100.00;101331.38;5032030;28;20717;-71
2023/08/05 07:21:52;;;;;;;12.60;6.97;;;;;;;16.86;100.00;101319.03;5032549;28;20057;-72
2023/08/05 07:24:18;;;;;;;15.88;8.48;;;;;;;17.00;100.00;101325.13;5032398;28;20087;-71
2023/08/05 07:26:43;;;;;;;12.68;6.07;;;;;;;17.07;100.00;101323.13;5032605;28;20039;-71
2023/08/05 07:29:09;;;;;;;12.43;5.82;;;;;;;17.05;100.00;101322.53;5032175;28;20022;-71
2023/08/05 07:31:34;;;;;;;15.32;7.55;;;;;;;17.11;100.00;101334.28;5032316;28;20033;-71
2023/08/05 07:34:00;;;;;;;17.13;6.93;;;;;;;17.19;100.00;101330.47;5032250;28;20097;-72
2023/08/05 07:36:27;;;;;;;13.60;6.63;;;;;;;17.34;100.00;101320.06;5047707;28;20065;-72
2023/08/05 07:38:54;;;;;;;14.88;6.43;;;;;;;17.39;100.00;101330.97;5032314;28;20025;-72
2023/08/05 07:41:22;;;;;;;13.90;5.82;;;;;;;17.37;100.00;101330.41;5031866;28;20542;-71
2023/08/05 07:43:47;;;;;;;10.82;5.68;;;;;;;17.40;100.00;101334.50;5032252;28;20453;-71
2023/08/05 07:46:13;;;;;;;11.63;5.63;;;;;;;17.45;100.00;101330.06;5031937;28;20056;-71
2023/08/05 07:48:39;;;;;;;13.95;5.85;;;;;;;17.47;100.00;101335.22;5032325;28;20040;-71
2023/08/05 07:51:08;;;;;;;15.27;6.70;;;;;;;17.44;100.00;101332.97;5031950;28;20652;-71
2023/08/05 07:53:35;;;;;;;11.30;5.80;;;;;;;17.42;100.00;101318.91;5032083;28;20124;-71
2023/08/05 07:56:11;;;;;;;15.00;6.57;;;;;;;17.51;100.00;101317.53;5031665;28;20017;-71
2023/08/05 07:58:39;;;;;;;15.88;5.72;;;;;;;17.53;100.00;101308.16;5030330;28;20026;-72
2023/08/05 08:01:05;;;;;;;11.90;5.72;;;;;;;17.54;100.00;101298.19;5027189;28;20025;-71
2023/08/05 08:03:31;;;;;;;10.10;6.32;;;;;;;17.60;100.00;101296.44;5024862;28;20481;-71
2023/08/05 08:05:57;;;;;;;8.68;5.28;;;;;;;17.66;100.00;101296.34;5025956;28;20044;-68
2023/08/05 08:08:23;;;;;;;9.43;5.07;;;;;;;17.65;100.00;101296.56;5025736;28;20071;-71
2023/08/05 08:10:48;;;;;;;10.95;4.75;;;;;;;17.69;100.00;101295.03;5023720;28;20033;-69
2023/08/05 08:13:13;;;;;;;11.18;4.22;;;;;;;17.82;100.00;101289.47;5030644;28;20496;-72
2023/08/05 08:15:39;;;;;;;8.95;4.70;;;;;;;18.10;100.00;101280.66;5031510;28;20029;-73
2023/08/05 08:18:04;;;;;;;10.38;5.63;;;;;;;18.59;100.00;101289.22;5045845;28;20396;-73
2023/08/05 08:20:29;;;;;;;12.75;5.50;;;;;;;18.84;100.00;101271.94;5029826;28;20039;-73
2023/08/05 08:22:55;;;;;;;5.68;4.07;;;;;;;18.99;100.00;101279.47;5029595;28;20076;-73
2023/08/05 08:25:20;;;;;;;11.63;4.20;;;;;;;18.83;98.78;101275.66;5031026;28;20087;-73
2023/08/05 08:27:45;;;;;;;6.68;3.80;;;;;;;18.65;98.54;101270.44;5031101;28;20079;-72
2023/08/05 08:30:12;;;;;;;7.53;4.07;;;;;;;18.64;99.34;101266.91;5030938;28;20043;-72
2023/08/05 08:32:37;;;;;;;7.85;4.00;;;;;;;18.77;98.60;101263.13;5031423;28;20025;-72
2023/08/05 08:35:03;;;;;;;8.18;4.78;;;;;;;18.82;99.25;101258.66;5031351;28;20029;-71
2023/08/05 08:37:28;;;;;;;6.90;3.33;;;;;;;18.82;99.58;101255.13;5032107;28;21984;-72
2023/08/05 08:39:54;;;;;;;7.30;3.88;;;;;;;18.77;98.35;101263.13;5030963;28;20059;-73
2023/08/05 08:42:21;;;;;;;7.00;3.05;;;;;;;18.73;98.28;101251.97;5030758;28;20559;-75
2023/08/05 08:44:49;;;;;;;5.97;3.85;;;;;;;18.66;98.41;101240.47;5030896;28;20032;-72
2023/08/05 08:47:16;;;;;;;9.27;4.18;;;;;;;18.80;95.84;101252.66;5031153;28;20030;-71
2023/08/05 08:49:45;;;;;;;7.68;3.80;;;;;;;19.33;96.10;101241.69;5030783;28;20029;-72
2023/08/05 08:52:12;;;;;;;9.25;3.63;;;;;;;20.51;89.60;101239.59;5029105;28;20032;-72
2023/08/05 08:54:38;;;;;;;8.73;4.63;;;;;;;21.35;84.16;101227.41;5028802;28;20325;-72
2023/08/05 08:57:05;;;;;;;4.43;3.30;;;;;;;21.59;83.66;101233.31;5028525;28;20524;-71
2023/08/05 08:59:31;;;;;;;9.45;4.68;;;;;;;21.46;83.10;101231.06;5044162;28;20029;-71
2023/08/05 09:01:57;;;;;;;6.22;3.30;;;;;;;21.24;81.29;101222.97;5029189;28;20061;-72
2023/08/05 09:04:30;;;;;;;5.95;3.75;;;;;;;20.77;85.02;101232.56;5029788;28;20065;-72
2023/08/05 09:06:56;;;;;;;6.15;3.78;;;;;;;20.20;86.66;101234.84;5029715;28;20125;-72
2023/08/05 09:09:22;;;;;;;6.63;3.78;;;;;;;20.02;86.71;101219.75;5029193;28;20106;-71
2023/08/05 09:11:47;;;;;;;7.43;3.95;;;;;;;20.17;87.36;101213.69;5029850;28;20464;-71
2023/08/05 09:14:16;;;;;;;8.75;3.92;;;;;;;20.31;88.54;101209.53;5029602;28;20063;-71
2023/08/05 09:16:59;;;;;;;7.68;3.60;;;;;;;20.48;88.16;101195.91;5029707;28;20030;-71
2023/08/05 09:19:25;;;;;;;6.43;3.30;;;;;;;20.57;86.86;101192.53;5027933;28;20042;-71
2023/08/05 09:21:51;;;;;;;6.10;3.53;;;;;;;20.56;88.57;101187.34;5028712;28;20057;-72
2023/08/05 09:24:26;;;;;;;4.78;3.15;;;;;;;20.53;87.40;101180.50;5030079;28;20072;-70
2023/08/05 09:26:57;;;;;;;4.78;3.22;;;;;;;20.52;85.37;101172.66;5029895;28;20488;-71
2023/08/05 09:29:23;;;;;;;6.35;3.28;;;;;;;20.36;85.44;101177.09;5030037;28;20047;-71
2023/08/05 09:31:54;;;;;;;4.18;3.25;;;;;;;20.27;85.73;101178.59;5029832;28;20067;-72
2023/08/05 09:34:20;;;;;;;3.95;2.50;;;;;;;19.93;82.08;101179.53;5029897;28;20104;-71
2023/08/05 09:36:48;;;;;;;5.57;3.45;;;;;;;19.86;84.99;101167.28;5029989;28;20409;-71
2023/08/05 09:39:16;;;;;;;5.63;3.20;;;;;;;19.74;86.31;101163.88;5029827;28;20435;-71
2023/08/05 09:41:54;;;;;;;4.72;2.90;;;;;;;19.74;88.10;101155.75;5029979;28;20420;-71
2023/08/05 09:44:20;;;;;;;4.45;2.90;;;;;;;19.44;86.95;101165.03;5029688;28;20076;-71
2023/08/05 09:46:46;;;;;;;5.22;3.33;;;;;;;19.17;87.18;101154.88;5044971;28;20986;-71
2023/08/05 09:49:14;;;;;;;3.53;3.03;;;;;;;19.21;89.50;101147.94;5029511;28;20113;-71
2023/08/05 09:51:42;;;;;;;7.82;3.28;;;;;;;19.30;89.21;101144.81;5029501;28;20032;-71
2023/08/05 09:54:17;;;;;;;3.50;2.72;;;;;;;19.38;87.53;101136.28;5029225;28;20044;-71
2023/08/05 09:56:43;;;;;;;5.60;3.00;;;;;;;19.37;88.99;101129.22;5029438;28;20021;-71
2023/08/05 09:59:12;;;;;;;5.07;3.22;;;;;;;19.45;90.00;101123.41;5044753;28;20029;-71
2023/08/05 10:01:39;;;;;;;4.85;3.65;;;;;;;19.46;87.00;101125.03;5029375;28;20488;-71
2023/08/05 10:04:06;;;;;;;6.57;3.38;;;;;;;19.37;87.46;101121.94;5029731;28;20033;-71
2023/08/05 10:06:36;;;;;;;5.18;3.75;;;;;;;19.24;89.47;101128.50;5029323;28;20032;-71
2023/08/05 10:09:02;;;;;;;5.75;3.03;;;;;;;19.12;88.06;101126.94;5029370;28;20113;-71
2023/08/05 10:11:28;;;;;;;5.50;3.13;;;;;;;19.04;89.54;101117.38;5029090;28;20112;-71
2023/08/05 10:13:56;;;;;;;7.00;3.75;;;;;;;18.96;91.70;101107.78;5028293;28;20037;-73
2023/08/05 10:16:24;;;;;;;6.55;3.70;;;;;;;18.95;90.83;101114.25;5028309;28;20096;-73
2023/08/05 10:18:50;;;;;;;4.95;3.05;;;;;;;18.97;92.05;101108.63;5028482;28;20052;-70
2023/08/05 10:21:35;;;;;;;3.17;2.63;;;;;;;19.10;93.01;101100.19;5028842;28;20033;-70
2023/08/05 10:24:01;;;;;;;4.78;3.33;;;;;;;19.30;90.73;101093.41;5027427;28;20032;-71
2023/08/05 10:26:42;;;;;;;4.72;2.80;;;;;;;19.43;90.90;101087.66;5028788;28;20041;-71
2023/08/05 10:29:50;;;;;;;5.22;3.25;;;;;;;19.34;92.63;101086.47;5028907;28;20044;-71
2023/08/05 10:32:16;;;;;;;7.90;3.97;;;;;;;19.19;92.04;101087.06;5026458;28;20043;-71
2023/08/05 10:34:41;;;;;;;3.83;2.80;;;;;;;19.25;91.99;101073.34;5028160;28;20948;-71
2023/08/05 10:37:06;;;;;;;3.60;2.92;;;;;;;19.37;90.76;101075.13;5029063;28;20103;-71
2023/08/05 10:39:41;;;;;;;4.28;3.22;;;;;;;19.42;90.12;101067.09;5028865;28;20025;-71
2023/08/05 10:42:28;;;;;;;4.38;3.10;;;;;;;19.61;91.88;101064.91;5028732;28;20033;-71
2023/08/05 10:44:54;;;;;;;7.07;3.85;;;;;;;19.45;88.41;101066.59;5027669;28;20121;-71
2023/08/05 10:47:23;;;;;;;5.13;3.35;;;;;;;19.27;90.19;101068.50;5029000;28;20033;-71
2023/08/05 10:49:56;;;;;;;8.30;3.90;;;;;;;19.12;90.92;101062.06;5028671;28;20072;-71
2023/08/05 10:52:22;;;;;;;5.45;3.22;;;;;;;18.98;93.03;101072.41;5028782;28;20068;-71
2023/08/05 10:54:49;;;;;;;5.47;3.03;;;;;;;18.79;93.58;101071.84;5029022;28;20044;-71
2023/08/05 10:57:32;;;;;;;3.85;3.10;;;;;;;18.69;95.07;101072.47;5027824;28;20377;-71
2023/08/05 11:00:02;;;;;;;5.68;3.63;;;;;;;18.54;95.76;101066.81;5028938;28;20174;-71
2023/08/05 11:02:28;;;;;;;7.10;3.83;;;;;;;18.49;96.33;101067.53;5027461;28;20030;-70
2023/08/05 11:05:07;;;;;;;5.57;4.35;;;;;;;18.38;96.44;101049.53;5028947;28;20044;-70
2023/08/05 11:07:36;;;;;;;7.63;3.60;;;;;;;18.48;97.24;101059.69;5028605;28;20108;-71
2023/08/05 11:10:04;;;;;;;7.45;4.05;;;;;;;18.81;99.69;101050.78;5027633;28;20369;-71
2023/08/05 11:12:29;;;;;;;4.72;3.78;;;;;;;19.09;96.03;101046.34;5028830;28;20029;-71